Jump to content


AMERICAN AIRLINES FLIGHT AA926 FLOWN ON 03-04-2018 BY CAPTAIN JIM BOERMAN

Pilot StatsCaptain Jim Boerman (LDP136) • 4,945.1 total hours • 1,489 total flights [View Logbook]
FLIGHT DETAILS
StatusReceived and approved on 2018-03-04 at 12:03:30
Origin AirportPhilip S W Goldson Intl (MZBZ) • Belize City, Belize (15 feet MSL)
Filed Flight PlanFLIGHT PLANNER OFFLINE
Destination AirportDallas-Ft Worth Intl (KDFW) • Dallas-Ft Worth, Texas, United States (607 feet MSL)
Alternate AirportSheppard AFB-Wichita Falls Mun (KSPS) • Wichita Falls, Texas, United States (1,019 feet MSL)
AirlineAmerican Airlines
AircraftBoeing 737-800 | Winglets (73H / B737-800)
FS Aircraft UsedBoeing 737-823 American N917NN AirCal Heritage
Cruising AltitudeFL340
Distance Flown1,036 nautical miles
Passengers Onboard96 passengers (59.26% full)
DEPARTURE DETAILS
Time Out08:06:16
Taxi Data139,277 lbs total with 22,027 lbs of fuel onboard
Takeoff Data08:17:45 (11 minutes after leaving gate/ramp) • 138,681 lbs total • 9° pitch at 154 knots
Departure METARMZBZ 041300Z 27002KT 4000 BR FEW004 BKN019 22/21 A3003 Q1016 BECMG AT1400Z 8000
ARRIVAL DETAILS
Landing Data11:03:38 • 124,604 lbs total • 3° pitch doing 130 knots at a rate of -302.20 feet/minute with 6,928 lbs of fuel onboard
Time In11:13:17 (10 minutes after landing)
Ramp Weight124,178 lbs total
Total Fuel Used15,099 lbs
Total Block Time03:06:32 (3.1 hours) while 21 minutes were spent on the ground
Arrival METARKDFW 041653Z 14010KT 10SM OVC015 19/14 A3003 RMK AO2 SLP165 T01890144
MISCELLANEOUS DETAILS
LiveDISPATCH Version4.8.3.1
FS Version
FSUIPC Version5.12
OS VersionWindows 7 32-bit
Screen Resolution1920 x 1080
Pilot's CommentsNo Comments Reported
FLIGHT MAP